Time;durP1;ratioP1;P1;durP2;ratioP2;P2;SDS_P1;SDS_P2;PMS_P1;PMS_P2;Temp;Humidity;BMP_temperature;BMP_pressure;BME280_temperature;BME280_humidity;BME280_pressure;Samples;Min_cycle;Max_cycle;Signal;HPM_P1;HPM_P2
2021/07/30 00:02:10;;;;;;;;;8.00;8.00;;;;;22.79;43.89;100529.75;5070732;27;47066;-62
2021/07/30 00:04:36;;;;;;;;;12.00;12.00;;;;;22.74;44.21;100526.50;5071537;27;45467;-62
2021/07/30 00:07:01;;;;;;;;;18.50;16.75;;;;;22.73;43.92;100524.78;5059679;28;45565;-62
2021/07/30 00:09:27;;;;;;;;;18.75;17.50;;;;;22.70;44.22;100517.78;5068615;27;45722;-62
2021/07/30 00:11:52;;;;;;;;;13.00;10.75;;;;;22.69;44.45;100528.72;5069055;27;47563;-62
2021/07/30 00:14:18;;;;;;;;;9.50;9.50;;;;;22.70;44.31;100522.31;5057556;28;45446;-62
2021/07/30 00:16:43;;;;;;;;;10.75;9.00;;;;;22.72;44.77;100518.50;5057917;28;45309;-62
2021/07/30 00:19:09;;;;;;;;;9.75;9.75;;;;;22.69;44.62;100513.34;5057678;28;45421;-62
2021/07/30 00:21:35;;;;;;;;;10.50;9.00;;;;;22.65;44.40;100511.84;5071852;27;47011;-62
2021/07/30 00:24:00;;;;;;;;;16.50;12.00;;;;;22.64;44.48;100514.69;5072029;27;45354;-62
2021/07/30 00:26:26;;;;;;;;;10.75;10.75;;;;;22.60;44.63;100520.28;5072082;27;45583;-62
2021/07/30 00:28:51;;;;;;;;;9.25;7.50;;;;;22.55;45.16;100516.22;5071863;27;45368;-61
2021/07/30 00:31:17;;;;;;;;;11.75;8.75;;;;;22.52;44.77;100508.34;5070241;28;45707;-61
2021/07/30 00:33:42;;;;;;;;;9.33;9.33;;;;;22.49;45.08;100508.59;5057722;27;45397;-61
2021/07/30 00:36:08;;;;;;;;;9.75;9.00;;;;;22.47;45.13;100513.22;5067155;27;45448;-61
2021/07/30 00:38:33;;;;;;;;;8.75;7.75;;;;;22.46;45.75;100509.66;5070776;27;45652;-61
2021/07/30 00:41:03;;;;;;;;;9.50;9.00;;;;;22.47;45.40;100505.97;5075040;27;47032;-61
2021/07/30 00:43:28;;;;;;;;;14.25;14.00;;;;;22.47;45.48;100500.56;5068815;27;46137;-61
2021/07/30 00:45:55;;;;;;;;;8.75;8.75;;;;;22.48;45.02;100494.16;5068850;27;45346;-62
2021/07/30 00:48:21;;;;;;;;;17.50;13.00;;;;;22.49;45.68;100500.47;5074946;27;45491;-61
2021/07/30 00:50:47;;;;;;;;;9.67;8.33;;;;;22.48;45.41;100499.56;5070751;28;48259;-61
2021/07/30 00:53:15;;;;;;;;;14.50;13.50;;;;;22.48;45.64;100501.41;5077562;28;45605;-61
2021/07/30 00:55:42;;;;;;;;;8.75;8.75;;;;;22.44;45.55;100498.09;5053025;28;45412;-61
2021/07/30 00:58:08;;;;;;;;;9.00;8.50;;;;;22.40;45.83;100491.19;5063386;27;45508;-61
2021/07/30 01:00:33;;;;;;;;;8.50;8.50;;;;;22.37;45.32;100494.13;5056982;28;47057;-61
2021/07/30 01:03:00;;;;;;;;;9.25;9.00;;;;;22.34;45.90;100486.22;5077928;28;45292;-61
2021/07/30 01:05:30;;;;;;;;;8.50;8.50;;;;;22.33;45.77;100490.78;5078244;28;45336;-61
2021/07/30 01:08:00;;;;;;;;;9.00;8.00;;;;;22.33;46.00;100488.06;5077880;28;45493;-61
2021/07/30 01:10:26;;;;;;;;;6.00;6.00;;;;;22.31;45.84;100490.03;5077372;28;47345;-62
2021/07/30 01:12:52;;;;;;;;;7.50;7.50;;;;;22.30;46.32;100480.19;5043883;28;45956;-62
2021/07/30 01:15:17;;;;;;;;;8.50;8.50;;;;;22.29;46.24;100483.00;5066865;28;47005;-62
2021/07/30 01:17:43;;;;;;;;;7.50;7.50;;;;;22.30;46.38;100484.75;5063276;28;45354;-62
2021/07/30 01:20:10;;;;;;;;;8.75;8.75;;;;;22.30;46.04;100484.75;5067361;28;48297;-61
2021/07/30 01:22:51;;;;;;;;;6.00;6.00;;;;;22.29;45.87;100477.59;5076561;28;45892;-61
2021/07/30 01:25:18;;;;;;;;;9.00;8.50;;;;;22.26;46.39;100478.69;5077432;28;45742;-61
2021/07/30 01:27:47;;;;;;;;;7.75;7.00;;;;;22.25;46.46;100474.28;5062390;28;45651;-61
2021/07/30 01:30:14;;;;;;;;;9.00;8.50;;;;;22.25;46.10;100466.16;5073909;27;48163;-62
2021/07/30 01:32:40;;;;;;;;;6.00;6.00;;;;;22.24;46.38;100467.16;5067324;27;45498;-61
2021/07/30 01:35:06;;;;;;;;;6.00;6.00;;;;;22.26;46.30;100464.31;5055436;27;45413;-62
2021/07/30 01:37:32;;;;;;;;;8.25;8.25;;;;;22.26;46.18;100461.63;5069981;27;45427;-61
2021/07/30 01:39:58;;;;;;;;;8.50;7.00;;;;;22.25;46.08;100458.06;5073573;27;47187;-61
2021/07/30 01:42:24;;;;;;;;;9.00;7.25;;;;;22.25;46.01;100457.19;5050135;27;45495;-61
2021/07/30 01:44:51;;;;;;;;;5.50;5.00;;;;;22.26;46.34;100453.50;5070717;27;45394;-62
2021/07/30 01:47:17;;;;;;;;;8.00;8.00;;;;;22.27;46.44;100449.81;5057073;27;45420;-61
2021/07/30 01:49:42;;;;;;;;;9.00;9.00;;;;;22.27;46.57;100449.81;5077155;27;47073;-62
2021/07/30 01:52:08;;;;;;;;;8.00;7.00;;;;;22.27;46.43;100453.38;5071380;27;45604;-61
2021/07/30 01:54:33;;;;;;;;;6.50;6.50;;;;;22.29;46.29;100450.56;5061567;27;45623;-61
2021/07/30 01:56:59;;;;;;;;;6.50;6.00;;;;;22.30;46.37;100452.28;5065165;27;45346;-63
2021/07/30 01:59:24;;;;;;;;;6.75;6.75;;;;;22.30;45.96;100455.84;5072544;27;47582;-61
2021/07/30 02:01:50;;;;;;;;;7.00;7.00;;;;;22.29;46.38;100456.84;5075441;27;45820;-62
2021/07/30 02:04:18;;;;;;;;;9.50;8.75;;;;;22.30;46.35;100457.69;5079692;27;45459;-61
2021/07/30 02:06:44;;;;;;;;;6.25;6.25;;;;;22.27;46.56;100447.97;5055247;27;45704;-61
2021/07/30 02:09:10;;;;;;;;;8.00;7.25;;;;;22.26;46.25;100448.09;5071001;27;46989;-61
2021/07/30 02:11:35;;;;;;;;;7.50;6.50;;;;;22.26;46.14;100448.09;5068073;27;45438;-62
2021/07/30 02:14:16;;;;;;;;;7.75;7.75;;;;;22.26;46.16;100445.41;5069057;27;45676;-61
2021/07/30 02:16:50;;;;;;;;;9.00;7.00;;;;;22.25;46.47;100436.44;5071687;27;45342;-61
2021/07/30 02:19:18;;;;;;;;;6.00;6.00;;;;;22.27;46.42;100441.72;5068434;27;45518;-61
2021/07/30 02:21:45;;;;;;;;;6.00;6.00;;;;;22.26;46.53;100446.25;5069441;27;45537;-62
2021/07/30 02:24:11;;;;;;;;;6.00;6.00;;;;;22.25;46.10;100441.84;5066977;27;45366;-61
2021/07/30 02:26:37;;;;;;;;;8.75;7.00;;;;;22.26;46.58;100442.69;5071633;27;45612;-62
2021/07/30 02:29:03;;;;;;;;;6.50;5.00;;;;;22.27;46.82;100437.16;5066150;28;48293;-62
2021/07/30 02:31:29;;;;;;;;;5.67;5.67;;;;;22.28;46.22;100440.72;5056782;28;45778;-62
2021/07/30 02:33:55;;;;;;;;;6.00;6.00;;;;;22.26;46.45;100432.75;5076104;27;45473;-62
2021/07/30 02:36:21;;;;;;;;;6.75;6.75;;;;;22.26;46.60;100435.44;5070624;27;45698;-62
2021/07/30 02:38:47;;;;;;;;;8.50;7.25;;;;;22.27;46.45;100430.91;5061102;28;46971;-62
2021/07/30 02:41:12;;;;;;;;;6.00;5.00;;;;;22.27;46.69;100428.19;5061933;28;45408;-62
2021/07/30 02:43:38;;;;;;;;;7.00;7.00;;;;;22.29;46.58;100437.06;5055384;28;45794;-61
2021/07/30 02:46:04;;;;;;;;;6.00;5.00;;;;;22.29;46.39;100434.34;5069286;27;45358;-62
2021/07/30 02:48:30;;;;;;;;;6.75;6.75;;;;;22.29;46.77;100432.50;5066993;27;48354;-63
2021/07/30 02:50:55;;;;;;;;;8.67;6.67;;;;;22.30;46.36;100418.00;5059789;28;45315;-62
2021/07/30 02:53:21;;;;;;;;;5.00;5.00;;;;;22.31;46.29;100418.88;5065340;27;45508;-62
2021/07/30 02:55:46;;;;;;;;;5.33;5.33;;;;;22.32;46.10;100423.31;5059176;28;45382;-61
2021/07/30 02:58:13;;;;;;;;;4.25;4.25;;;;;22.32;46.07;100417.91;5066057;27;45838;-61
2021/07/30 03:00:39;;;;;;;;;6.00;6.00;;;;;22.32;46.04;100415.19;5062191;28;45713;-61
2021/07/30 03:03:04;;;;;;;;;6.25;5.75;;;;;22.32;46.32;100409.78;5058808;28;45441;-61
2021/07/30 03:05:30;;;;;;;;;4.67;4.67;;;;;22.33;46.42;100412.38;5069298;27;45291;-61
2021/07/30 03:07:55;;;;;;;;;4.75;4.75;;;;;22.35;46.20;100401.44;5066379;27;46473;-61
2021/07/30 03:10:20;;;;;;;;;5.00;5.00;;;;;22.34;46.11;100402.41;5068953;27;45486;-61
2021/07/30 03:12:46;;;;;;;;;6.00;5.75;;;;;22.33;46.46;100393.44;5066872;27;45456;-61
2021/07/30 03:15:11;;;;;;;;;5.00;5.00;;;;;22.32;46.55;100398.97;5070737;27;45358;-61
2021/07/30 03:17:37;;;;;;;;;7.75;6.00;;;;;22.32;46.28;100393.56;5049593;28;47013;-61
2021/07/30 03:20:05;;;;;;;;;4.33;4.33;;;;;22.33;46.63;100392.56;5075595;27;45919;-62
2021/07/30 03:22:31;;;;;;;;;5.75;5.75;;;;;22.36;46.05;100391.47;5066294;27;45258;-61
2021/07/30 03:24:57;;;;;;;;;6.75;6.00;;;;;22.36;46.42;100400.47;5069460;27;45458;-61
2021/07/30 03:27:24;;;;;;;;;8.25;6.50;;;;;22.38;46.00;100394.97;5070352;27;47162;-61
2021/07/30 03:29:49;;;;;;;;;7.75;7.00;;;;;22.37;46.81;100391.38;5073020;27;45491;-61
2021/07/30 03:32:15;;;;;;;;;6.75;5.75;;;;;22.38;46.83;100387.72;5069294;27;45284;-61
2021/07/30 03:34:40;;;;;;;;;6.50;6.50;;;;;22.38;46.35;100390.41;5068902;27;45414;-62
2021/07/30 03:37:06;;;;;;;;;7.00;5.75;;;;;22.39;46.52;100393.97;5060947;28;47111;-63
2021/07/30 03:39:31;;;;;;;;;7.00;6.00;;;;;22.39;46.52;100394.84;5071048;27;45430;-62
2021/07/30 03:41:57;;;;;;;;;7.50;6.75;;;;;22.36;46.19;100402.28;5068515;27;45382;-62
2021/07/30 03:44:22;;;;;;;;;7.33;6.33;;;;;22.35;46.05;100401.44;5066580;27;45701;-62
2021/07/30 03:46:48;;;;;;;;;6.00;6.00;;;;;22.34;46.31;100394.31;5064982;27;47291;-62
2021/07/30 03:49:13;;;;;;;;;7.50;7.50;;;;;22.30;46.08;100398.22;5073645;27;46219;-63
2021/07/30 03:51:39;;;;;;;;;7.25;6.50;;;;;22.29;46.45;100399.22;5070177;27;45564;-62
2021/07/30 03:54:04;;;;;;;;;6.50;6.50;;;;;22.27;46.53;100393.06;5069729;27;45553;-61
2021/07/30 03:56:30;;;;;;;;;8.00;6.33;;;;;22.26;46.53;100397.59;5071158;27;47047;-63
2021/07/30 03:58:55;;;;;;;;;6.00;6.00;;;;;22.27;46.23;100395.75;5071783;27;45609;-62
2021/07/30 04:01:21;;;;;;;;;6.00;5.67;;;;;22.25;46.29;100393.19;5057303;28;45511;-62
2021/07/30 04:03:46;;;;;;;;;7.00;6.67;;;;;22.25;46.48;100392.31;5069930;27;45391;-62
2021/07/30 04:06:14;;;;;;;;;7.67;7.00;;;;;22.23;46.24;100388.84;5067852;27;45818;-62
2021/07/30 04:08:40;;;;;;;;;5.67;5.67;;;;;22.24;46.78;100394.16;5069871;27;45235;-62
2021/07/30 04:11:05;;;;;;;;;7.00;6.00;;;;;22.24;46.66;100385.19;5068337;27;45339;-62
2021/07/30 04:13:33;;;;;;;;;5.00;5.00;;;;;22.25;46.90;100390.47;5070964;28;45600;-62
2021/07/30 04:16:03;;;;;;;;;5.67;5.67;;;;;22.25;46.83;100392.31;5068451;27;47145;-62
2021/07/30 04:18:28;;;;;;;;;7.00;5.00;;;;;22.24;46.54;100388.75;5071785;28;45922;-62
2021/07/30 04:20:53;;;;;;;;;6.00;5.00;;;;;22.25;46.27;100395.03;5047754;28;45913;-62
2021/07/30 04:23:19;;;;;;;;;7.00;6.00;;;;;22.24;46.62;100393.28;5070708;27;45517;-65
2021/07/30 04:25:44;;;;;;;;;6.00;6.00;;;;;22.25;46.75;100392.31;5060243;28;47163;-62
2021/07/30 04:28:10;;;;;;;;;7.33;6.00;;;;;22.24;46.52;100391.47;5078975;27;45411;-62
2021/07/30 04:30:35;;;;;;;;;7.00;5.33;;;;;22.24;46.62;100383.34;5059703;28;45444;-63
2021/07/30 04:33:01;;;;;;;;;4.67;4.67;;;;;22.24;46.99;100386.06;5068985;28;45514;-63
2021/07/30 04:35:26;;;;;;;;;6.67;6.67;;;;;22.24;47.13;100387.88;5069476;28;45704;-62
2021/07/30 04:37:55;;;;;;;;;6.00;6.00;;;;;22.24;47.02;100386.06;5072980;28;45417;-63
2021/07/30 04:40:21;;;;;;;;;5.50;5.00;;;;;22.24;47.11;100394.16;5060180;28;45366;-62
2021/07/30 04:42:47;;;;;;;;;6.00;6.00;;;;;22.23;47.13;100389.72;5078221;27;45475;-62
2021/07/30 04:45:12;;;;;;;;;8.00;8.00;;;;;22.21;46.80;100397.06;5049675;28;46996;-61
2021/07/30 04:47:38;;;;;;;;;7.00;7.00;;;;;22.21;47.04;100398.91;5077020;28;45570;-62
2021/07/30 04:50:04;;;;;;;;;5.67;5.67;;;;;22.18;47.13;100402.72;5066912;27;45368;-61
2021/07/30 04:52:29;;;;;;;;;6.67;6.67;;;;;22.16;46.92;100393.88;5057669;28;45437;-61
2021/07/30 04:54:55;;;;;;;;;6.67;6.33;;;;;22.14;47.25;100398.53;5066071;27;47143;-62
2021/07/30 04:57:20;;;;;;;;;8.33;7.67;;;;;22.14;46.85;100397.66;5068162;27;45790;-62
2021/07/30 04:59:46;;;;;;;;;6.00;6.00;;;;;22.12;46.93;100397.78;5073755;27;45365;-62
2021/07/30 05:02:11;;;;;;;;;5.00;5.00;;;;;22.12;46.85;100400.47;5072039;27;45591;-61
2021/07/30 05:04:36;;;;;;;;;4.00;4.00;;;;;22.10;46.99;100399.72;5056342;28;46981;-61
2021/07/30 05:07:03;;;;;;;;;5.67;5.67;;;;;22.09;47.30;100397.13;5065795;27;45718;-61
2021/07/30 05:09:29;;;;;;;;;5.00;5.00;;;;;22.09;47.12;100394.41;5050175;28;45510;-61
2021/07/30 05:11:55;;;;;;;;;5.00;4.00;;;;;22.07;46.63;100385.56;5078982;28;45436;-61
2021/07/30 05:14:20;;;;;;;;;4.00;4.00;;;;;22.03;47.11;100391.19;5077658;27;47172;-62
2021/07/30 05:16:45;;;;;;;;;5.00;5.00;;;;;22.00;46.76;100382.44;5067729;28;46190;-61
2021/07/30 05:19:11;;;;;;;;;7.00;6.00;;;;;21.96;46.84;100384.50;5074341;27;45356;-61
2021/07/30 05:21:37;;;;;;;;;4.00;4.00;;;;;21.95;46.60;100390.88;5069461;28;45437;-61
2021/07/30 05:24:03;;;;;;;;;5.00;5.00;;;;;21.93;46.98;100389.28;5070264;28;47588;-62
2021/07/30 05:26:28;;;;;;;;;6.00;5.00;;;;;21.91;47.12;100393.94;5068142;27;45558;-61
2021/07/30 05:28:54;;;;;;;;;5.33;5.33;;;;;21.90;46.75;100384.09;5068498;28;45403;-61
2021/07/30 05:31:19;;;;;;;;;4.00;4.00;;;;;21.89;47.17;100399.44;5077798;27;45485;-61
2021/07/30 05:33:45;;;;;;;;;5.00;5.00;;;;;21.89;46.47;100402.16;5070917;28;46878;-61
2021/07/30 05:36:15;;;;;;;;;5.33;5.33;;;;;21.87;46.66;100401.41;5067815;28;45500;-61
2021/07/30 05:38:40;;;;;;;;;5.00;4.00;;;;;21.84;46.52;100396.19;5061140;28;45480;-63
2021/07/30 05:41:08;;;;;;;;;6.67;5.33;;;;;21.82;46.36;100400.88;5068194;27;45557;-62
2021/07/30 05:43:34;;;;;;;;;5.67;5.67;;;;;21.80;46.40;100383.91;5065236;28;47177;-62
2021/07/30 05:46:01;;;;;;;;;3.00;3.00;;;;;21.82;46.33;100389.19;5065655;28;45757;-63
2021/07/30 05:48:26;;;;;;;;;4.00;4.00;;;;;21.82;46.46;100397.31;5067023;28;45512;-62
2021/07/30 05:50:52;;;;;;;;;4.00;4.00;;;;;21.81;46.38;100392.88;5063451;27;46898;-62
2021/07/30 05:53:17;;;;;;;;;5.00;4.00;;;;;21.80;46.39;100393.84;5069915;28;45374;-63
2021/07/30 05:55:42;;;;;;;;;6.67;6.00;;;;;21.77;46.22;100386.84;5064654;28;45365;-63
2021/07/30 05:58:08;;;;;;;;;5.67;5.67;;;;;21.77;46.64;100384.16;5071838;27;45499;-63
2021/07/30 06:00:33;;;;;;;;;5.00;5.00;;;;;21.77;46.57;100389.53;5061760;28;45616;-62
2021/07/30 06:02:59;;;;;;;;;4.33;4.33;;;;;21.79;46.98;100389.44;5063915;27;47996;-62
2021/07/30 06:05:24;;;;;;;;;4.67;4.67;;;;;21.79;46.98;100382.19;5067407;27;45939;-63
2021/07/30 06:07:50;;;;;;;;;4.00;4.00;;;;;21.81;46.32;100388.34;5069121;28;45843;-62
2021/07/30 06:10:15;;;;;;;;;6.00;6.00;;;;;21.86;46.92;100378.06;5061369;28;45531;-62
2021/07/30 06:12:41;;;;;;;;;6.33;6.33;;;;;21.93;46.94;100381.16;5073740;27;45328;-62
2021/07/30 06:15:07;;;;;;;;;3.00;3.00;;;;;21.99;46.40;100376.19;5041436;28;45433;-62
2021/07/30 06:17:33;;;;;;;;;4.00;4.00;;;;;22.04;46.54;100382.09;5055656;28;45438;-62
2021/07/30 06:19:58;;;;;;;;;5.00;5.00;;;;;22.07;46.63;100378.31;5069209;27;45506;-64
2021/07/30 06:22:23;;;;;;;;;6.00;6.00;;;;;22.12;46.93;100378.00;5063527;28;48257;-62
2021/07/30 06:24:49;;;;;;;;;4.67;4.67;;;;;22.15;46.95;100367.81;5073095;28;45314;-62
2021/07/30 06:27:17;;;;;;;;;5.67;5.00;;;;;22.21;47.05;100369.19;5054841;28;45469;-62
2021/07/30 06:29:43;;;;;;;;;4.33;4.33;;;;;22.25;46.81;100371.56;5065311;27;45629;-62
2021/07/30 06:32:08;;;;;;;;;7.00;5.67;;;;;22.30;47.22;100366.66;5062042;28;47095;-62
2021/07/30 06:34:34;;;;;;;;;5.00;5.00;;;;;22.36;47.53;100362.63;5040882;27;45438;-61
2021/07/30 06:37:00;;;;;;;;;5.67;5.67;;;;;22.43;47.13;100365.72;5051953;28;45588;-62
2021/07/30 06:39:25;;;;;;;;;5.33;4.00;;;;;22.50;47.24;100366.97;5061160;28;45629;-61
2021/07/30 06:41:51;;;;;;;;;4.67;4.33;;;;;22.54;47.34;100363.03;5067592;28;48262;-63
2021/07/30 06:44:17;;;;;;;;;4.67;4.67;;;;;22.58;47.12;100359.97;5059056;28;45669;-63
2021/07/30 06:46:43;;;;;;;;;4.67;4.67;;;;;22.65;47.19;100360.38;5070969;28;45365;-62
2021/07/30 06:49:08;;;;;;;;;6.00;6.00;;;;;22.71;46.86;100365.28;5073187;28;45465;-63
2021/07/30 06:51:34;;;;;;;;;6.00;6.00;;;;;22.79;47.45;100357.47;5063106;28;47542;-63
2021/07/30 06:54:00;;;;;;;;;5.00;5.00;;;;;22.85;46.99;100353.44;5065232;28;45384;-63
2021/07/30 06:56:26;;;;;;;;;4.00;4.00;;;;;22.92;47.30;100362.81;5067330;27;45870;-63
2021/07/30 06:58:51;;;;;;;;;5.67;5.67;;;;;22.97;47.01;100365.13;5077893;27;45512;-61
2021/07/30 07:01:17;;;;;;;;;6.33;5.00;;;;;22.99;46.44;100355.03;5052192;28;48143;-61
2021/07/30 07:03:42;;;;;;;;;5.00;5.00;;;;;23.02;46.55;100368.34;5055418;28;45389;-63
2021/07/30 07:06:14;;;;;;;;;4.33;4.33;;;;;23.05;46.79;100363.56;5067541;27;45329;-62
2021/07/30 07:08:39;;;;;;;;;8.00;5.00;;;;;23.05;46.52;100357.28;5058033;28;45561;-62
2021/07/30 07:11:04;;;;;;;;;6.67;5.00;;;;;23.07;46.19;100364.28;5041241;28;47497;-62
2021/07/30 07:13:30;;;;;;;;;6.00;6.00;;;;;23.10;46.44;100361.34;5071775;28;45365;-63
2021/07/30 07:15:55;;;;;;;;;5.00;5.00;;;;;23.16;46.60;100360.88;5059859;28;45449;-63
2021/07/30 07:18:21;;;;;;;;;6.00;6.00;;;;;23.19;46.35;100355.19;5072835;28;45345;-63
2021/07/30 07:20:47;;;;;;;;;6.00;6.00;;;;;23.24;46.42;100362.06;5059045;28;47335;-63
2021/07/30 07:23:12;;;;;;;;;5.00;5.00;;;;;23.25;46.51;100353.84;5077573;28;46040;-63
2021/07/30 07:25:38;;;;;;;;;4.00;4.00;;;;;23.31;46.60;100356.06;5061603;28;45326;-63
2021/07/30 07:28:04;;;;;;;;;4.00;4.00;;;;;23.34;46.12;100347.69;5079030;28;45402;-62
2021/07/30 07:30:30;;;;;;;;;7.00;5.00;;;;;23.36;46.61;100344.84;5087843;27;48361;-62
2021/07/30 07:32:55;;;;;;;;;8.00;7.00;;;;;23.38;46.40;100340.19;5060042;27;45373;-62
2021/07/30 07:35:21;;;;;;;;;6.00;5.00;;;;;23.39;46.46;100342.78;5072026;28;45241;-61
2021/07/30 07:37:46;;;;;;;;;8.00;8.00;;;;;23.43;46.86;100346.94;5061051;28;45583;-61
2021/07/30 07:40:12;;;;;;;;;6.00;5.67;;;;;23.47;46.68;100339.41;5065792;28;46969;-61
2021/07/30 07:42:37;;;;;;;;;5.00;5.00;;;;;23.51;47.02;100349.03;5064934;28;45703;-61
2021/07/30 07:45:04;;;;;;;;;6.33;6.33;;;;;23.53;46.60;100348.91;5079241;28;45267;-62
2021/07/30 07:47:29;;;;;;;;;4.67;3.00;;;;;23.55;46.76;100352.34;5055276;28;45397;-63
2021/07/30 07:49:55;;;;;;;;;4.33;3.33;;;;;23.55;46.61;100355.06;5040682;28;48089;-62
2021/07/30 07:52:20;;;;;;;;;5.00;5.00;;;;;23.59;46.83;100351.13;5078154;28;45276;-62
2021/07/30 07:54:46;;;;;;;;;5.67;5.67;;;;;23.62;46.63;100343.63;5078341;27;45425;-62
2021/07/30 07:57:12;;;;;;;;;5.67;4.33;;;;;23.65;46.84;100339.81;5078164;27;45508;-62
2021/07/30 07:59:38;;;;;;;;;6.00;5.00;;;;;23.65;47.13;100332.56;5060877;28;47421;-62
2021/07/30 08:02:07;;;;;;;;;6.00;6.00;;;;;23.66;47.06;100336.97;5017016;28;45923;-62
2021/07/30 08:04:33;;;;;;;;;5.33;5.33;;;;;23.69;47.04;100330.44;5059616;28;45360;-62
2021/07/30 08:07:03;;;;;;;;;3.33;3.33;;;;;23.71;47.18;100323.03;5077614;27;45359;-62
2021/07/30 08:09:29;;;;;;;;;6.00;5.67;;;;;23.75;47.01;100328.06;5078393;27;47097;-62
2021/07/30 08:11:55;;;;;;;;;4.67;4.67;;;;;23.80;47.05;100330.41;5061099;28;45494;-62
2021/07/30 08:14:21;;;;;;;;;4.33;4.33;;;;;23.76;47.02;100318.97;5043984;28;45278;-61
2021/07/30 08:16:46;;;;;;;;;4.33;4.33;;;;;23.72;47.29;100314.78;5077561;27;45394;-62
2021/07/30 08:19:12;;;;;;;;;5.00;5.00;;;;;23.69;47.23;100319.59;5075865;28;45371;-62
2021/07/30 08:21:38;;;;;;;;;8.00;6.67;;;;;23.72;47.57;100319.34;5077485;27;45963;-63
2021/07/30 08:24:04;;;;;;;;;6.00;5.00;;;;;23.72;47.61;100325.63;5075354;27;45333;-62
2021/07/30 08:26:29;;;;;;;;;4.00;4.00;;;;;23.76;47.76;100316.28;5077586;27;45479;-62
2021/07/30 08:28:55;;;;;;;;;4.33;4.33;;;;;23.79;47.74;100317.88;5076053;28;47845;-63
2021/07/30 08:31:24;;;;;;;;;4.33;4.33;;;;;23.82;47.78;100320.31;5060378;28;45309;-63
2021/07/30 08:33:50;;;;;;;;;4.67;4.00;;;;;23.85;47.72;100320.03;5078374;28;45362;-63
2021/07/30 08:36:15;;;;;;;;;5.00;5.00;;;;;23.93;47.76;100311.28;5078686;28;45341;-62
2021/07/30 08:38:40;;;;;;;;;5.67;5.67;;;;;24.02;48.08;100305.97;5065285;28;47318;-62
2021/07/30 08:41:07;;;;;;;;;5.67;5.33;;;;;24.05;47.81;100310.25;5058092;28;45306;-61
2021/07/30 08:43:32;;;;;;;;;5.00;5.00;;;;;24.05;47.53;100323.81;5043406;28;45348;-61
2021/07/30 08:45:58;;;;;;;;;4.67;4.67;;;;;24.03;47.57;100326.66;5070853;28;45432;-61
2021/07/30 08:48:23;;;;;;;;;7.67;6.00;;;;;24.02;47.71;100318.66;5067831;27;46707;-61
2021/07/30 08:50:50;;;;;;;;;4.00;4.00;;;;;24.03;47.93;100325.78;5054835;28;45411;-62
2021/07/30 08:53:23;;;;;;;;;5.33;4.67;;;;;24.03;47.84;100318.53;5045915;28;45499;-62
2021/07/30 08:55:49;;;;;;;;;4.33;4.00;;;;;24.03;48.08;100326.66;5081685;27;45341;-62
2021/07/30 08:58:14;;;;;;;;;3.00;3.00;;;;;24.09;48.05;100322.56;5065413;27;47428;-63
2021/07/30 09:00:40;;;;;;;;;5.00;3.00;;;;;24.14;48.01;100319.44;5061280;28;45584;-62
2021/07/30 09:03:05;;;;;;;;;3.67;3.67;;;;;24.19;48.12;100311.81;5077429;27;45452;-63
2021/07/30 09:05:32;;;;;;;;;6.00;5.00;;;;;24.23;48.09;100316.81;5063750;28;46444;-62
2021/07/30 09:08:03;;;;;;;;;3.33;3.33;;;;;24.29;48.07;100318.16;5081103;27;48005;-63
2021/07/30 09:10:31;;;;;;;;;6.00;6.00;;;;;24.32;48.00;100317.94;5068452;28;45479;-62
2021/07/30 09:13:19;;;;;;;;;4.67;4.00;;;;;24.34;47.97;100318.66;5055881;28;45364;-63
2021/07/30 09:15:47;;;;;;;;;3.00;3.00;;;;;24.37;48.08;100312.97;5061141;28;45508;-63
2021/07/30 09:18:32;;;;;;;;;7.00;4.00;;;;;24.38;47.81;100316.53;5043072;28;47231;-62
2021/07/30 09:21:16;;;;;;;;;3.67;3.67;;;;;24.40;48.01;100314.56;5067631;28;46256;-62
2021/07/30 09:23:47;;;;;;;;;4.33;4.33;;;;;24.38;47.98;100317.38;5077960;28;45285;-61
2021/07/30 09:26:34;;;;;;;;;3.67;3.33;;;;;24.40;47.91;100306.44;5061393;28;45392;-61
2021/07/30 09:29:06;;;;;;;;;6.00;4.33;;;;;24.41;48.25;100305.44;5080426;28;47042;-61
2021/07/30 09:31:53;;;;;;;;;4.67;4.67;;;;;24.41;48.04;100321.72;5071147;27;45826;-63
2021/07/30 09:34:41;;;;;;;;;8.00;4.67;;;;;24.44;48.31;100319.59;5066743;28;45597;-62
2021/07/30 09:37:06;;;;;;;;;4.00;4.00;;;;;24.51;48.00;100319.91;5061221;28;45427;-62
2021/07/30 09:39:38;;;;;;;;;4.00;4.00;;;;;24.54;48.06;100312.38;5062308;28;47363;-62
2021/07/30 09:42:09;;;;;;;;;3.00;3.00;;;;;24.56;48.31;100307.69;5078921;27;45480;-62
2021/07/30 09:44:54;;;;;;;;;4.00;4.00;;;;;24.58;48.46;100313.84;5079741;28;45367;-64
2021/07/30 09:47:21;;;;;;;;;3.00;3.00;;;;;24.61;48.28;100310.84;5059554;27;45579;-62
2021/07/30 09:49:48;;;;;;;;;4.00;4.00;;;;;24.64;48.46;100309.72;5051941;28;47945;-62
2021/07/30 09:52:20;;;;;;;;;3.00;3.00;;;;;24.64;48.64;100309.72;5054683;28;45426;-62
2021/07/30 09:54:48;;;;;;;;;4.00;4.00;;;;;24.63;48.67;100308.00;5050502;28;45441;-63
2021/07/30 09:57:19;;;;;;;;;4.00;4.00;;;;;24.64;48.36;100286.16;5053734;28;45497;-62
2021/07/30 09:59:45;;;;;;;;;3.00;3.00;;;;;24.63;48.30;100294.44;5048476;28;46314;-62
2021/07/30 10:02:16;;;;;;;;;3.33;3.33;;;;;24.58;48.47;100294.84;5056613;28;45505;-63
2021/07/30 10:04:44;;;;;;;;;5.00;4.00;;;;;24.60;48.65;100294.72;5051100;28;45438;-62
2021/07/30 10:07:14;;;;;;;;;3.33;3.33;;;;;24.67;48.46;100292.34;5045588;28;45716;-61
2021/07/30 10:09:44;;;;;;;;;4.67;3.67;;;;;24.74;48.61;100294.34;5046154;28;45506;-62
2021/07/30 10:12:10;;;;;;;;;3.33;3.33;;;;;24.80;48.30;100295.69;5047016;28;45608;-63
2021/07/30 10:14:36;;;;;;;;;3.33;3.33;;;;;24.88;47.98;100301.28;5050858;28;45813;-64
2021/07/30 10:17:02;;;;;;;;;3.67;3.67;;;;;24.88;48.31;100294.00;5049850;28;46070;-64
2021/07/30 10:19:32;;;;;;;;;5.00;4.00;;;;;24.88;48.23;100290.44;5050135;28;48306;-63
2021/07/30 10:22:01;;;;;;;;;4.00;4.00;;;;;24.90;48.09;100285.72;5048204;28;45433;-64
2021/07/30 10:24:29;;;;;;;;;3.67;3.67;;;;;24.89;47.90;100284.84;5047759;28;45372;-63
2021/07/30 10:27:01;;;;;;;;;3.00;3.00;;;;;24.96;48.14;100290.63;5053315;28;45686;-63
2021/07/30 10:29:26;;;;;;;;;4.67;4.67;;;;;25.03;47.99;100293.66;5047750;28;47355;-63
2021/07/30 10:31:52;;;;;;;;;4.00;4.00;;;;;25.03;48.13;100285.53;5051925;28;45421;-60
2021/07/30 10:34:48;;;;;;;;;2.00;2.00;;;;;24.99;47.67;100278.63;5048217;28;45468;-61
2021/07/30 10:37:34;;;;;;;;;2.00;2.00;;;;;24.98;47.19;100296.78;5040855;28;45653;-62
2021/07/30 10:40:18;;;;;;;;;2.33;2.33;;;;;25.04;47.25;100270.97;5047534;28;48115;-62
2021/07/30 10:43:03;;;;;;;;;2.00;2.00;;;;;25.13;46.92;100275.56;5050205;28;46991;-63
2021/07/30 10:45:33;;;;;;;;;3.00;3.00;;;;;25.16;46.97;100278.91;5055145;28;45846;-63
2021/07/30 10:48:13;;;;;;;;;2.33;2.00;;;;;25.17;46.18;100272.47;5059143;27;45600;-62
2021/07/30 10:50:47;;;;;;;;;2.00;2.00;;;;;25.09;46.21;100276.84;5066821;27;45797;-63
2021/07/30 10:53:32;;;;;;;;;3.67;3.67;;;;;25.08;45.96;100283.28;5067261;27;45484;-63
2021/07/30 10:56:03;;;;;;;;;3.00;3.00;;;;;25.08;46.08;100280.56;5070381;27;45483;-63
2021/07/30 10:59:01;;;;;;;;;3.00;3.00;;;;;25.05;45.97;100276.28;5066427;27;45645;-63
2021/07/30 11:01:27;;;;;;;;;3.00;3.00;;;;;25.01;45.66;100293.81;5067495;27;45844;-62
2021/07/30 11:03:52;;;;;;;;;2.67;2.67;;;;;25.05;46.19;100289.00;5064354;27;45349;-63
2021/07/30 11:06:24;;;;;;;;;3.00;3.00;;;;;25.07;46.40;100278.84;5068404;27;45812;-63
2021/07/30 11:08:59;;;;;;;;;3.33;3.33;;;;;25.09;45.97;100277.72;5062628;27;45448;-62
2021/07/30 11:11:47;;;;;;;;;3.33;3.00;;;;;25.19;45.69;100288.63;5070848;27;47928;-63
2021/07/30 11:14:12;;;;;;;;;1.67;1.67;;;;;25.27;45.57;100285.19;5062893;27;45779;-62
2021/07/30 11:16:46;;;;;;;;;2.67;2.67;;;;;25.32;44.80;100281.09;5054034;28;45355;-62
2021/07/30 11:19:13;;;;;;;;;1.67;1.67;;;;;25.35;44.43;100282.66;5036456;28;45501;-62
2021/07/30 11:21:40;;;;;;;;;1.33;1.33;;;;;25.34;43.70;100276.38;5065805;27;47428;-62
2021/07/30 11:24:06;;;;;;;;;2.33;2.00;;;;;25.36;44.03;100273.50;5063687;27;45897;-62
2021/07/30 11:26:33;;;;;;;;;1.00;1.00;;;;;25.36;43.65;100279.78;5062244;27;45684;-62